Time;durP1;ratioP1;P1;durP2;ratioP2;P2;SDS_P1;SDS_P2;PMS_P1;PMS_P2;Temp;Humidity;BMP_temperature;BMP_pressure;BME280_temperature;BME280_humidity;BME280_pressure;Samples;Min_cycle;Max_cycle;Signal;HPM_P1;HPM_P2
2022/11/24 00:02:08;;;;;;;19.38;8.48;;;7.10;99.90;;;;;;5082551;28;20066;-60
2022/11/24 00:04:34;;;;;;;17.50;9.25;;;7.00;99.90;;;;;;5079196;28;20051;-62
2022/11/24 00:06:59;;;;;;;20.75;7.07;;;7.00;99.90;;;;;;5079847;28;20063;-63
2022/11/24 00:09:25;;;;;;;14.57;8.35;;;7.00;99.90;;;;;;5088669;28;20040;-58
2022/11/24 00:11:51;;;;;;;14.48;7.00;;;7.60;99.90;;;;;;5072037;28;20060;-61
2022/11/24 00:14:16;;;;;;;13.13;7.32;;;7.50;99.90;;;;;;5076525;28;20529;-61
2022/11/24 00:16:42;;;;;;;15.93;8.05;;;7.00;99.90;;;;;;5072853;28;20067;-59
2022/11/24 00:19:09;;;;;;;19.30;8.23;;;7.00;99.90;;;;;;5078104;28;20062;-59
2022/11/24 00:21:35;;;;;;;15.18;8.65;;;7.00;99.90;;;;;;5068450;28;20082;-59
2022/11/24 00:24:01;;;;;;;17.63;7.55;;;7.00;99.90;;;;;;5082583;27;20070;-59
2022/11/24 00:26:33;;;;;;;19.20;7.13;;;6.90;99.90;;;;;;5076556;28;20044;-62
2022/11/24 00:29:01;;;;;;;20.58;8.98;;;7.20;99.90;;;;;;5065281;28;20516;-60
2022/11/24 00:34:01;;;;;;;20.20;7.45;;;6.80;99.90;;;;;;5064502;28;20715;-60
2022/11/24 00:36:32;;;;;;;18.08;6.93;;;6.80;99.90;;;;;;5080238;28;20051;-61
2022/11/24 00:39:01;;;;;;;18.55;7.68;;;6.80;99.90;;;;;;5088657;27;20048;-61
2022/11/24 00:41:28;;;;;;;19.50;8.32;;;6.80;99.90;;;;;;5061492;28;20539;-57
2022/11/24 00:43:54;;;;;;;13.43;6.35;;;6.80;99.90;;;;;;5086409;28;20056;-57
2022/11/24 00:46:21;;;;;;;12.05;7.45;;;6.70;99.90;;;;;;5076961;28;20074;-57
2022/11/24 00:48:47;;;;;;;16.05;7.47;;;6.70;99.90;;;;;;5064077;28;20060;-57
2022/11/24 00:51:14;;;;;;;15.05;7.22;;;6.70;99.90;;;;;;5079233;27;20162;-57
2022/11/24 00:53:40;;;;;;;14.32;6.50;;;6.70;99.90;;;;;;5076949;28;20059;-56
2022/11/24 00:56:07;;;;;;;19.80;6.93;;;6.60;99.90;;;;;;5066853;28;20060;-57
2022/11/24 00:58:33;;;;;;;19.13;7.30;;;6.60;99.90;;;;;;5073123;27;20129;-55
2022/11/24 01:01:05;;;;;;;15.05;6.82;;;6.60;99.90;;;;;;5081291;27;20055;-57
2022/11/24 01:03:34;;;;;;;16.20;8.30;;;6.60;99.90;;;;;;5079622;27;20540;-56
2022/11/24 01:06:07;;;;;;;19.60;6.80;;;6.50;99.90;;;;;;5076498;28;20048;-57
2022/11/24 01:08:34;;;;;;;20.67;7.00;;;6.50;99.90;;;;;;5076023;28;20060;-55
2022/11/24 01:11:12;;;;;;;12.77;5.55;;;6.50;99.90;;;;;;5079847;28;20075;-57
2022/11/24 01:13:38;;;;;;;14.40;5.35;;;6.40;99.90;;;;;;5052848;28;20066;-56
2022/11/24 01:16:04;;;;;;;12.68;5.72;;;6.40;99.90;;;;;;5078368;28;20052;-58
2022/11/24 01:18:34;;;;;;;11.98;5.82;;;6.40;99.90;;;;;;5061743;28;20396;-57
2022/11/24 01:21:03;;;;;;;21.30;6.60;;;6.40;99.90;;;;;;5067914;28;20052;-57
2022/11/24 01:25:58;;;;;;;13.73;5.50;;;6.40;99.90;;;;;;5055331;28;20821;-57
2022/11/24 01:28:23;;;;;;;17.02;5.40;;;6.40;99.90;;;;;;5083629;27;20051;-57
2022/11/24 01:30:57;;;;;;;15.10;6.22;;;6.40;99.90;;;;;;5072906;28;20051;-58
2022/11/24 01:33:23;;;;;;;19.35;6.05;;;6.40;99.90;;;;;;5072202;28;20684;-57
2022/11/24 01:35:48;;;;;;;14.73;5.85;;;6.70;99.90;;;;;;5062668;28;20060;-57
2022/11/24 01:38:14;;;;;;;13.40;5.18;;;6.40;99.90;;;;;;5079838;28;20477;-57
2022/11/24 01:40:40;;;;;;;14.57;6.55;;;6.40;99.90;;;;;;5066746;28;20044;-58
2022/11/24 01:43:17;;;;;;;15.10;6.03;;;6.40;99.90;;;;;;5079969;28;20052;-57
2022/11/24 01:45:44;;;;;;;18.23;7.05;;;6.40;99.90;;;;;;5067295;28;20060;-57
2022/11/24 01:48:22;;;;;;;21.35;6.63;;;6.40;99.90;;;;;;5081227;27;20056;-57
2022/11/24 01:51:01;;;;;;;13.73;4.97;;;6.40;99.90;;;;;;5076255;28;20113;-57
2022/11/24 01:53:26;;;;;;;20.25;5.60;;;6.40;99.90;;;;;;5077114;28;20060;-58
2022/11/24 01:55:53;;;;;;;13.52;5.13;;;6.30;99.90;;;;;;5074186;28;20653;-58
2022/11/24 01:58:23;;;;;;;16.83;5.15;;;6.30;99.90;;;;;;5080438;28;20162;-62
2022/11/24 02:00:49;;;;;;;17.90;5.03;;;7.70;99.90;;;;;;5056103;28;20060;-62
2022/11/24 02:03:19;;;;;;;15.60;5.85;;;6.30;99.90;;;;;;5064409;28;20067;-62
2022/11/24 02:05:48;;;;;;;22.13;5.75;;;6.30;99.90;;;;;;5071953;28;20413;-63
2022/11/24 02:08:24;;;;;;;13.93;4.82;;;6.60;99.90;;;;;;5036191;28;1142571;-63
2022/11/24 02:10:49;;;;;;;15.15;5.38;;;6.30;99.90;;;;;;5075532;28;20154;-60
2022/11/24 02:13:15;;;;;;;11.75;5.00;;;6.40;99.90;;;;;;5046114;28;20060;-62
2022/11/24 02:15:41;;;;;;;26.30;6.68;;;6.40;99.90;;;;;;5045928;28;20083;-60
2022/11/24 02:18:07;;;;;;;17.73;4.57;;;6.40;99.90;;;;;;5076890;28;20522;-61
2022/11/24 02:20:33;;;;;;;12.02;4.25;;;6.50;99.90;;;;;;5086792;28;20052;-56
2022/11/24 02:23:07;;;;;;;18.15;5.15;;;6.50;99.90;;;;;;5079027;28;20720;-58
2022/11/24 02:25:45;;;;;;;11.20;4.30;;;6.60;99.90;;;;;;5070255;28;20048;-58
2022/11/24 02:28:15;;;;;;;14.57;3.97;;;6.60;99.90;;;;;;5074756;28;20053;-62
2022/11/24 02:30:41;;;;;;;22.67;5.72;;;6.90;99.90;;;;;;5080368;28;20048;-57
2022/11/24 02:33:06;;;;;;;15.30;4.20;;;6.60;99.90;;;;;;5071070;28;20068;-57
2022/11/24 02:35:33;;;;;;;20.95;5.93;;;6.60;99.90;;;;;;5072557;28;20056;-57
2022/11/24 02:37:59;;;;;;;22.95;5.07;;;6.70;99.90;;;;;;5068066;28;20074;-60
2022/11/24 02:40:28;;;;;;;16.52;4.53;;;6.70;99.90;;;;;;5077183;28;20738;-58
2022/11/24 02:42:57;;;;;;;11.52;3.40;;;6.70;99.90;;;;;;5081476;28;20685;-60
2022/11/24 02:45:25;;;;;;;14.88;3.80;;;6.60;99.90;;;;;;5070931;28;20414;-63
2022/11/24 02:47:50;;;;;;;16.23;5.40;;;6.70;99.90;;;;;;5063108;28;20060;-64
2022/11/24 02:50:16;;;;;;;18.65;5.28;;;6.60;99.90;;;;;;5085752;28;20056;-60
2022/11/24 02:52:42;;;;;;;17.98;4.30;;;6.90;99.90;;;;;;5076929;28;20051;-57
2022/11/24 02:55:07;;;;;;;16.92;4.63;;;6.60;99.90;;;;;;5069905;28;20055;-57
2022/11/24 02:57:33;;;;;;;19.35;5.03;;;6.50;99.90;;;;;;5069623;28;20179;-57
2022/11/24 02:59:59;;;;;;;15.60;4.45;;;6.50;99.90;;;;;;5087224;28;20051;-61
2022/11/24 03:02:24;;;;;;;14.65;4.05;;;6.50;99.90;;;;;;5078079;28;20502;-60
2022/11/24 03:04:50;;;;;;;18.80;4.30;;;6.40;99.90;;;;;;5094904;28;20523;-57
2022/11/24 03:07:16;;;;;;;16.17;4.80;;;6.40;99.90;;;;;;5080958;28;20052;-58
2022/11/24 03:09:42;;;;;;;15.10;4.32;;;6.40;99.90;;;;;;5083506;28;20590;-60
2022/11/24 03:12:08;;;;;;;14.82;4.15;;;6.40;99.90;;;;;;5078217;28;20044;-57
2022/11/24 03:14:33;;;;;;;15.00;4.10;;;6.50;99.90;;;;;;5076436;28;20071;-57
2022/11/24 03:16:59;;;;;;;10.30;4.05;;;6.40;99.90;;;;;;5084273;28;20067;-57
2022/11/24 03:19:25;;;;;;;13.00;3.78;;;6.40;99.90;;;;;;5089509;28;20087;-57
2022/11/24 03:21:50;;;;;;;14.02;4.03;;;6.50;99.90;;;;;;5070517;28;20118;-58
2022/11/24 03:24:16;;;;;;;16.27;4.75;;;6.40;99.90;;;;;;5082029;28;20052;-57
2022/11/24 03:26:42;;;;;;;11.35;5.35;;;6.60;99.90;;;;;;5076186;28;20060;-57
2022/11/24 03:29:08;;;;;;;12.60;4.03;;;6.40;99.90;;;;;;5072334;28;20058;-60
2022/11/24 03:31:34;;;;;;;16.83;4.43;;;6.40;99.90;;;;;;5067565;28;20056;-59
2022/11/24 03:33:59;;;;;;;20.20;4.10;;;6.40;99.90;;;;;;5074797;28;20526;-58
2022/11/24 03:36:25;;;;;;;9.32;3.25;;;6.40;99.90;;;;;;5081338;28;20058;-57
2022/11/24 03:38:51;;;;;;;13.50;3.97;;;6.40;99.90;;;;;;5078329;28;20059;-59
2022/11/24 03:41:16;;;;;;;17.35;4.00;;;6.40;99.90;;;;;;5080524;28;20510;-65
2022/11/24 03:43:42;;;;;;;7.82;3.08;;;6.40;99.90;;;;;;5086440;28;20146;-63
2022/11/24 03:46:08;;;;;;;13.13;4.10;;;6.40;99.90;;;;;;5081509;28;20060;-61
2022/11/24 03:48:34;;;;;;;18.02;4.60;;;6.40;99.90;;;;;;5081096;28;20075;-62
2022/11/24 03:51:01;;;;;;;11.77;3.53;;;6.40;99.90;;;;;;5065322;28;20620;-62
2022/11/24 03:55:54;;;;;;;16.08;4.10;;;6.50;99.90;;;;;;5076503;28;20068;-59
2022/11/24 03:58:21;;;;;;;13.32;4.85;;;6.50;99.90;;;;;;5074679;28;20139;-59
2022/11/24 04:00:49;;;;;;;17.50;4.18;;;6.40;99.90;;;;;;5079560;28;20108;-60
2022/11/24 04:03:15;;;;;;;15.73;3.85;;;6.50;99.90;;;;;;5084690;28;20052;-63
2022/11/24 04:05:40;;;;;;;21.30;4.45;;;6.70;99.90;;;;;;5082091;28;20412;-58
2022/11/24 04:08:06;;;;;;;13.30;4.90;;;6.50;99.90;;;;;;5067151;28;20052;-64
2022/11/24 04:10:35;;;;;;;13.85;4.00;;;6.50;99.90;;;;;;5087453;28;20060;-60
2022/11/24 04:13:02;;;;;;;20.05;3.80;;;6.40;99.90;;;;;;5088026;28;20415;-63
2022/11/24 04:15:28;;;;;;;15.68;3.40;;;6.40;99.90;;;;;;5077115;28;20159;-60
2022/11/24 04:17:56;;;;;;;10.32;3.00;;;6.40;99.90;;;;;;5070162;28;20055;-57
2022/11/24 04:20:22;;;;;;;14.63;5.28;;;6.40;99.90;;;;;;5083688;28;20483;-58
2022/11/24 04:22:49;;;;;;;21.42;4.05;;;6.40;99.90;;;;;;5076984;28;20959;-57
2022/11/24 04:25:16;;;;;;;12.38;3.88;;;6.40;99.90;;;;;;5069481;28;20044;-57
2022/11/24 04:27:42;;;;;;;18.05;4.53;;;6.30;99.90;;;;;;5083822;28;20052;-57
2022/11/24 04:30:08;;;;;;;19.70;4.90;;;6.20;99.90;;;;;;5059258;28;20131;-57
2022/11/24 04:32:35;;;;;;;20.95;3.80;;;6.20;99.90;;;;;;5074463;28;20060;-57
2022/11/24 04:35:00;;;;;;;13.85;3.75;;;6.20;99.90;;;;;;5085575;28;20050;-57
2022/11/24 04:37:26;;;;;;;12.57;3.20;;;6.20;99.90;;;;;;5081433;28;20060;-57
2022/11/24 04:39:53;;;;;;;14.43;3.58;;;6.10;99.90;;;;;;5076815;28;20051;-57
2022/11/24 04:42:20;;;;;;;12.25;3.53;;;6.20;99.90;;;;;;5088069;28;20059;-57
2022/11/24 04:44:45;;;;;;;10.50;3.30;;;6.10;99.90;;;;;;5079428;28;20455;-57
2022/11/24 04:47:18;;;;;;;16.70;3.13;;;6.10;99.90;;;;;;5093196;28;20075;-57
2022/11/24 04:49:46;;;;;;;14.52;3.17;;;6.00;99.90;;;;;;5068610;28;20066;-57
2022/11/24 04:52:11;;;;;;;16.80;3.60;;;6.00;99.90;;;;;;5071831;28;20052;-57
2022/11/24 04:54:37;;;;;;;16.13;3.30;;;5.90;99.90;;;;;;5069895;28;20059;-57
2022/11/24 04:57:03;;;;;;;18.80;5.18;;;5.90;99.90;;;;;;5073813;28;20060;-58
2022/11/24 04:59:32;;;;;;;23.10;4.05;;;5.90;99.90;;;;;;5050465;28;20531;-57
2022/11/24 05:01:58;;;;;;;16.35;3.40;;;5.90;99.90;;;;;;5068055;28;20083;-58
2022/11/24 05:04:24;;;;;;;18.98;4.65;;;5.80;99.90;;;;;;5072130;28;20159;-59
2022/11/24 05:06:49;;;;;;;14.05;3.78;;;5.80;99.90;;;;;;5075908;28;20060;-57
2022/11/24 05:09:16;;;;;;;12.85;2.78;;;5.80;99.90;;;;;;5078417;28;20138;-58
2022/11/24 05:11:42;;;;;;;13.85;3.75;;;5.90;99.90;;;;;;5094694;27;20090;-58
2022/11/24 05:14:08;;;;;;;12.38;2.55;;;6.40;99.90;;;;;;5084958;28;20052;-57
2022/11/24 05:16:34;;;;;;;15.15;3.63;;;5.90;99.90;;;;;;5066336;28;20059;-56
2022/11/24 05:19:00;;;;;;;17.65;2.80;;;5.90;99.90;;;;;;5084425;28;20178;-60
2022/11/24 05:21:27;;;;;;;16.42;2.88;;;5.90;99.90;;;;;;5085715;28;20076;-58
2022/11/24 05:23:53;;;;;;;12.13;2.88;;;6.30;99.90;;;;;;5084100;28;20370;-60
2022/11/24 05:26:18;;;;;;;11.32;3.10;;;5.90;99.90;;;;;;5086807;28;20056;-60
2022/11/24 05:28:44;;;;;;;16.90;3.40;;;5.80;99.90;;;;;;5075344;28;20060;-58
2022/11/24 05:31:10;;;;;;;19.75;4.53;;;5.70;99.90;;;;;;5079481;28;20142;-58
2022/11/24 05:33:37;;;;;;;18.98;3.85;;;5.90;99.90;;;;;;5079639;28;20060;-57
2022/11/24 05:36:05;;;;;;;18.70;4.20;;;5.80;99.90;;;;;;5084791;28;20105;-57
2022/11/24 05:38:34;;;;;;;8.57;2.67;;;5.80;99.90;;;;;;5077471;28;20528;-57
2022/11/24 05:41:01;;;;;;;17.48;4.65;;;5.70;99.90;;;;;;5100039;27;20056;-57
2022/11/24 05:43:27;;;;;;;13.45;3.17;;;5.70;99.90;;;;;;5086663;28;20456;-57
2022/11/24 05:45:53;;;;;;;10.35;2.47;;;5.70;99.90;;;;;;5086212;28;20416;-57
2022/11/24 05:48:19;;;;;;;8.52;2.20;;;5.70;99.90;;;;;;5083121;28;20070;-57
2022/11/24 05:50:44;;;;;;;16.70;3.58;;;5.80;99.90;;;;;;5074575;28;20048;-57
2022/11/24 05:53:12;;;;;;;13.07;3.22;;;5.80;99.90;;;;;;5072317;28;20051;-56
2022/11/24 05:55:39;;;;;;;13.27;3.42;;;5.80;99.90;;;;;;5065244;28;20052;-56
2022/11/24 05:58:07;;;;;;;14.02;2.80;;;5.80;99.90;;;;;;5083426;28;20081;-57
2022/11/24 06:00:34;;;;;;;11.57;3.33;;;5.80;99.90;;;;;;5076458;28;20051;-56
2022/11/24 06:03:00;;;;;;;9.88;2.63;;;5.70;99.90;;;;;;5082555;28;20108;-57
2022/11/24 06:05:27;;;;;;;11.85;2.92;;;5.70;99.90;;;;;;5086358;27;20056;-57
2022/11/24 06:07:53;;;;;;;13.32;3.60;;;5.70;99.90;;;;;;5083293;28;21126;-57
2022/11/24 06:10:22;;;;;;;9.68;2.42;;;5.70;99.90;;;;;;5086008;28;20484;-57
2022/11/24 06:12:48;;;;;;;8.40;2.25;;;5.70;99.90;;;;;;5085132;28;20079;-58
2022/11/24 06:15:14;;;;;;;13.32;3.65;;;5.70;99.90;;;;;;5091515;28;20060;-57
2022/11/24 06:17:40;;;;;;;11.38;3.58;;;5.60;99.90;;;;;;5084924;28;20060;-58
2022/11/24 06:20:07;;;;;;;13.45;3.70;;;6.30;99.90;;;;;;5083821;28;20052;-58
2022/11/24 06:22:33;;;;;;;20.55;3.38;;;5.60;99.90;;;;;;5056732;28;20056;-55
2022/11/24 06:24:59;;;;;;;10.77;2.85;;;5.50;99.90;;;;;;5042659;28;1124170;-57
2022/11/24 06:27:24;;;;;;;11.13;2.85;;;5.50;99.90;;;;;;5059651;28;20502;-57
2022/11/24 06:29:50;;;;;;;20.58;3.28;;;5.40;99.90;;;;;;5094312;28;20052;-57
2022/11/24 06:32:16;;;;;;;13.70;2.30;;;5.40;99.90;;;;;;5079052;28;20060;-57
2022/11/24 06:34:43;;;;;;;11.27;2.88;;;5.30;99.90;;;;;;5089527;28;20506;-56
2022/11/24 06:37:08;;;;;;;12.40;3.65;;;5.30;99.90;;;;;;5084601;28;20060;-57
2022/11/24 06:39:34;;;;;;;15.90;3.45;;;5.30;99.90;;;;;;5097676;28;20374;-56
2022/11/24 06:42:00;;;;;;;10.45;3.22;;;5.30;99.90;;;;;;5075964;28;20135;-57
2022/11/24 06:44:26;;;;;;;15.48;3.92;;;5.20;99.90;;;;;;5085382;28;20079;-56
2022/11/24 06:46:51;;;;;;;11.07;2.72;;;5.30;99.90;;;;;;5076973;28;20064;-57
2022/11/24 06:49:17;;;;;;;14.73;3.63;;;5.20;99.90;;;;;;5076402;28;20422;-57
2022/11/24 06:51:43;;;;;;;12.25;3.25;;;5.20;99.90;;;;;;5083316;28;20056;-56
2022/11/24 06:54:13;;;;;;;13.88;3.30;;;5.20;99.90;;;;;;5074478;28;20466;-57
2022/11/24 06:56:39;;;;;;;19.70;4.07;;;5.30;99.90;;;;;;5079969;28;20068;-56
2022/11/24 06:59:04;;;;;;;14.00;3.03;;;5.80;99.90;;;;;;5082338;28;20063;-57
2022/11/24 07:01:34;;;;;;;10.82;2.58;;;5.40;99.90;;;;;;5075578;28;20524;-56
2022/11/24 07:03:59;;;;;;;10.10;3.10;;;5.40;99.90;;;;;;5073449;28;20083;-57
2022/11/24 07:06:27;;;;;;;12.85;3.42;;;5.60;99.90;;;;;;5084400;28;20130;-57
2022/11/24 07:08:53;;;;;;;10.80;2.90;;;5.50;99.90;;;;;;5081874;28;21082;-57
2022/11/24 07:11:23;;;;;;;12.75;2.85;;;5.50;99.90;;;;;;5085866;27;20078;-57
2022/11/24 07:13:50;;;;;;;17.85;4.00;;;5.50;99.90;;;;;;5065493;28;20060;-57
2022/11/24 07:16:21;;;;;;;10.63;3.33;;;5.60;99.90;;;;;;5090302;28;20410;-57
2022/11/24 07:18:50;;;;;;;25.52;5.05;;;5.50;99.90;;;;;;5074012;28;20047;-57
2022/11/24 07:21:16;;;;;;;9.48;3.72;;;5.60;99.90;;;;;;5073783;28;20052;-57
2022/11/24 07:23:42;;;;;;;13.75;3.67;;;5.60;99.90;;;;;;5073515;28;20102;-56
2022/11/24 07:26:09;;;;;;;11.52;2.83;;;6.00;99.90;;;;;;5075268;28;20557;-57
2022/11/24 07:28:35;;;;;;;12.52;3.38;;;5.50;99.90;;;;;;5070722;28;20055;-57
2022/11/24 07:31:10;;;;;;;10.13;3.30;;;5.60;99.90;;;;;;5092164;28;20544;-57
2022/11/24 07:33:36;;;;;;;15.55;4.10;;;5.50;99.90;;;;;;5088689;28;20078;-57
2022/11/24 07:36:03;;;;;;;17.75;3.83;;;5.50;99.90;;;;;;5076213;28;20943;-57
2022/11/24 07:41:03;;;;;;;15.30;3.08;;;5.60;99.90;;;;;;5094146;28;21268;-57
2022/11/24 07:45:58;;;;;;;9.70;2.50;;;5.70;99.90;;;;;;5085547;28;20052;-57
2022/11/24 07:48:24;;;;;;;12.38;3.45;;;5.70;99.90;;;;;;5094716;27;20429;-57
2022/11/24 07:50:50;;;;;;;12.13;3.00;;;5.80;99.90;;;;;;5091344;27;20059;-57
2022/11/24 07:53:16;;;;;;;13.35;2.75;;;5.80;99.90;;;;;;5091258;27;20051;-58
2022/11/24 07:55:42;;;;;;;10.65;2.70;;;5.80;99.90;;;;;;5058258;28;20109;-58
2022/11/24 07:58:08;;;;;;;14.63;3.72;;;5.80;99.90;;;;;;5095122;27;20061;-59
2022/11/24 08:00:33;;;;;;;11.13;3.25;;;5.90;99.90;;;;;;5072284;28;20056;-56
2022/11/24 08:02:59;;;;;;;10.10;3.53;;;5.90;99.90;;;;;;5085163;28;20097;-57
2022/11/24 08:05:25;;;;;;;10.55;3.38;;;6.00;99.90;;;;;;5068509;28;20493;-57
2022/11/24 08:07:50;;;;;;;24.08;4.07;;;6.00;99.90;;;;;;5081255;27;20059;-57
2022/11/24 08:10:16;;;;;;;15.68;3.33;;;6.00;99.90;;;;;;5088292;27;20399;-56
2022/11/24 08:12:42;;;;;;;16.63;4.38;;;6.00;99.90;;;;;;5081175;28;20050;-57
2022/11/24 08:15:08;;;;;;;16.83;3.78;;;6.10;99.90;;;;;;5086542;28;20052;-57
2022/11/24 08:17:36;;;;;;;20.90;4.35;;;6.10;99.90;;;;;;5085549;28;20056;-56
2022/11/24 08:20:02;;;;;;;16.98;4.38;;;6.10;99.90;;;;;;5083063;28;20533;-57
2022/11/24 08:22:27;;;;;;;11.88;3.30;;;6.10;99.90;;;;;;5077336;28;20136;-57
2022/11/24 08:24:53;;;;;;;17.70;3.88;;;6.20;99.90;;;;;;5092188;27;20059;-57
2022/11/24 08:27:19;;;;;;;13.55;3.97;;;6.20;99.90;;;;;;5090746;28;20079;-57
2022/11/24 08:29:44;;;;;;;13.98;3.78;;;6.30;99.90;;;;;;5076273;28;20048;-56
2022/11/24 08:32:11;;;;;;;15.95;4.10;;;6.30;99.90;;;;;;5077715;28;20083;-57
2022/11/24 08:34:37;;;;;;;11.20;4.20;;;6.40;99.90;;;;;;5074099;27;20498;-57
2022/11/24 08:37:06;;;;;;;10.45;3.65;;;6.40;99.90;;;;;;5076797;28;20098;-57
2022/11/24 08:39:33;;;;;;;8.88;3.35;;;6.40;99.90;;;;;;5071331;28;20492;-57
2022/11/24 08:41:59;;;;;;;17.40;4.13;;;6.80;99.90;;;;;;5069349;28;20052;-57
2022/11/24 08:44:27;;;;;;;11.13;3.50;;;6.40;99.90;;;;;;5060353;28;20056;-57
2022/11/24 08:46:53;;;;;;;21.98;5.15;;;6.50;99.90;;;;;;5073812;28;21561;-57
2022/11/24 08:49:20;;;;;;;14.18;3.72;;;6.50;99.90;;;;;;5064365;28;20053;-57
2022/11/24 08:51:47;;;;;;;26.42;4.53;;;7.20;99.90;;;;;;5052512;28;20052;-57
2022/11/24 08:54:14;;;;;;;13.93;3.90;;;6.90;99.90;;;;;;5074135;28;20133;-57
2022/11/24 08:56:41;;;;;;;19.90;5.78;;;6.70;99.90;;;;;;5069044;28;20060;-56
2022/11/24 08:59:07;;;;;;;20.45;4.32;;;6.70;99.90;;;;;;5078355;28;20071;-57
2022/11/24 09:01:33;;;;;;;14.90;3.88;;;6.80;99.90;;;;;;5045419;28;20436;-56
2022/11/24 09:03:59;;;;;;;18.23;3.90;;;6.80;99.90;;;;;;5049929;28;20055;-59
2022/11/24 09:06:29;;;;;;;12.40;3.80;;;6.90;99.90;;;;;;5080507;28;20055;-57
2022/11/24 09:08:54;;;;;;;10.10;4.43;;;7.10;99.90;;;;;;5060702;28;20109;-57
2022/11/24 09:11:20;;;;;;;12.55;4.05;;;7.20;99.90;;;;;;5066878;28;20055;-56
2022/11/24 09:13:46;;;;;;;7.88;4.20;;;7.40;99.90;;;;;;5072314;28;20056;-56
2022/11/24 09:16:14;;;;;;;12.00;4.85;;;7.50;99.90;;;;;;5071070;28;20410;-57
2022/11/24 09:18:40;;;;;;;14.90;4.05;;;7.60;99.90;;;;;;5087725;28;20519;-56
2022/11/24 09:21:08;;;;;;;13.93;4.28;;;7.80;99.90;;;;;;5076009;28;20052;-57
2022/11/24 09:23:34;;;;;;;12.95;4.55;;;7.90;99.90;;;;;;5082281;28;20067;-56
2022/11/24 09:26:18;;;;;;;16.63;5.30;;;8.10;99.90;;;;;;5073368;28;20151;-57
2022/11/24 09:28:44;;;;;;;15.07;6.13;;;8.10;99.90;;;;;;5090592;27;20146;-57
2022/11/24 09:31:12;;;;;;;11.30;3.75;;;8.20;99.90;;;;;;5073869;27;20048;-57
2022/11/24 09:33:38;;;;;;;15.95;4.88;;;8.30;99.90;;;;;;5054863;28;20615;-56
2022/11/24 09:36:05;;;;;;;11.48;4.25;;;8.40;99.90;;;;;;5059451;28;20167;-57
2022/11/24 09:38:34;;;;;;;10.55;3.75;;;8.40;99.90;;;;;;5088638;28;20116;-57
2022/11/24 09:41:24;;;;;;;7.75;3.03;;;8.50;99.90;;;;;;5081587;27;20078;-57
2022/11/24 09:43:50;;;;;;;23.75;4.78;;;8.50;99.90;;;;;;5068509;27;20082;-57
2022/11/24 09:46:26;;;;;;;14.95;3.78;;;8.60;99.90;;;;;;5079743;28;20493;-57
2022/11/24 09:48:55;;;;;;;13.43;3.60;;;8.50;99.90;;;;;;5077184;28;20897;-58
2022/11/24 09:51:27;;;;;;;12.32;3.15;;;8.30;99.90;;;;;;5072794;28;20048;-57
2022/11/24 09:54:07;;;;;;;6.80;2.63;;;8.70;99.90;;;;;;5054552;28;20235;-56
2022/11/24 09:56:35;;;;;;;7.32;2.92;;;8.80;99.90;;;;;;5063946;28;20075;-56
2022/11/24 09:59:08;;;;;;;6.32;2.40;;;8.80;99.90;;;;;;5082107;28;20147;-57
2022/11/24 10:01:36;;;;;;;5.65;2.75;;;9.00;99.90;;;;;;5090413;28;20470;-56
2022/11/24 10:04:03;;;;;;;7.40;2.60;;;9.10;99.90;;;;;;5071025;28;20091;-56
2022/11/24 10:06:33;;;;;;;5.20;2.47;;;9.10;99.90;;;;;;5083678;28;20064;-56
2022/11/24 10:09:23;;;;;;;5.30;2.10;;;9.30;99.90;;;;;;5068252;28;20063;-57
2022/11/24 10:12:09;;;;;;;7.07;2.58;;;9.50;99.90;;;;;;5083171;28;20067;-56
2022/11/24 10:14:35;;;;;;;5.60;2.33;;;9.50;99.90;;;;;;5074812;28;20513;-57
2022/11/24 10:17:25;;;;;;;12.88;3.38;;;9.60;99.90;;;;;;5075267;28;20082;-57
2022/11/24 10:20:09;;;;;;;7.93;2.60;;;9.70;99.90;;;;;;5074822;28;20125;-56
2022/11/24 10:22:55;;;;;;;12.55;3.15;;;9.80;99.90;;;;;;5075523;28;20063;-56
2022/11/24 10:25:25;;;;;;;5.70;2.08;;;10.00;99.90;;;;;;5075528;28;20051;-57
2022/11/24 10:28:03;;;;;;;5.32;2.08;;;10.20;99.90;;;;;;5064274;28;20040;-57
2022/11/24 10:33:27;;;;;;;5.07;1.50;;;10.40;99.90;;;;;;5081056;28;20063;-57
2022/11/24 10:36:00;;;;;;;9.05;3.00;;;10.50;99.90;;;;;;5079744;28;20048;-57
2022/11/24 10:38:32;;;;;;;6.93;2.45;;;10.40;99.90;;;;;;5073854;28;20491;-57
2022/11/24 10:41:04;;;;;;;6.15;1.92;;;10.50;99.90;;;;;;5065410;28;20712;-57
2022/11/24 10:43:33;;;;;;;4.63;1.83;;;10.40;99.90;;;;;;5038516;28;1209056;-57
2022/11/24 10:46:14;;;;;;;4.78;1.83;;;10.40;99.90;;;;;;5068550;28;20067;-57
2022/11/24 10:48:45;;;;;;;7.32;2.20;;;10.50;99.90;;;;;;5071330;28;20048;-56
2022/11/24 10:51:33;;;;;;;3.00;1.60;;;10.50;99.90;;;;;;5078111;28;20517;-57
2022/11/24 10:54:11;;;;;;;8.15;1.38;;;10.30;99.90;;;;;;5063154;28;20678;-57
2022/11/24 10:56:41;;;;;;;2.90;1.42;;;10.20;99.90;;;;;;5074611;28;20056;-58
2022/11/24 10:59:19;;;;;;;2.40;1.30;;;9.90;99.90;;;;;;5072059;28;20086;-57
2022/11/24 11:01:45;;;;;;;12.25;3.38;;;9.90;99.90;;;;;;5065735;28;20409;-57
2022/11/24 11:04:19;;;;;;;5.10;1.52;;;9.80;99.90;;;;;;5079706;28;20068;-58
2022/11/24 11:06:44;;;;;;;6.68;3.63;;;9.80;99.90;;;;;;5077706;28;20051;-57
2022/11/24 11:09:13;;;;;;;6.70;1.55;;;9.80;99.90;;;;;;5080173;28;20498;-57
2022/11/24 11:11:40;;;;;;;9.45;1.70;;;9.90;99.90;;;;;;5079803;28;20121;-57
2022/11/24 11:14:11;;;;;;;6.03;2.30;;;9.90;99.90;;;;;;5077825;28;20060;-57
2022/11/24 11:16:49;;;;;;;4.45;1.38;;;10.00;99.90;;;;;;5058012;28;20083;-57
2022/11/24 11:19:32;;;;;;;3.47;1.45;;;9.80;99.90;;;;;;5079011;28;20089;-58
2022/11/24 11:22:05;;;;;;;6.60;1.85;;;9.60;99.90;;;;;;5070051;27;20516;-57
2022/11/24 11:24:33;;;;;;;6.65;2.42;;;9.60;99.90;;;;;;5076174;28;20295;-56
2022/11/24 11:27:04;;;;;;;1.83;1.20;;;9.50;99.90;;;;;;5054199;28;20060;-57
2022/11/24 11:29:33;;;;;;;8.38;2.47;;;9.70;99.90;;;;;;5084672;28;20138;-58
2022/11/24 11:32:00;;;;;;;6.10;1.67;;;9.90;99.90;;;;;;5080768;28;20068;-57
2022/11/24 11:36:55;;;;;;;2.30;1.40;;;10.00;99.90;;;;;;5077492;27;20154;-57
2022/11/24 11:42:05;;;;;;;;;;;10.20;99.90;;;;;;5076271;28;20461;-57
2022/11/24 11:44:54;;;;;;;6.43;1.60;;;10.20;99.90;;;;;;5095243;27;19923;-57
2022/11/24 11:49:55;;;;;;;6.93;1.92;;;10.30;99.90;;;;;;5082673;27;20654;-65
2022/11/24 11:52:24;;;;;;;3.90;1.92;;;10.30;99.90;;;;;;5092936;27;20500;-68
2022/11/24 11:55:08;;;;;;;4.32;2.10;;;10.40;99.90;;;;;;5080117;27;20063;-63
2022/11/24 11:57:53;;;;;;;3.72;1.58;;;10.50;99.90;;;;;;5079985;27;20056;-62
2022/11/24 12:00:20;;;;;;;5.43;2.22;;;10.50;99.90;;;;;;5075212;28;20088;-57
2022/11/24 12:03:13;;;;;;;4.55;2.55;;;10.60;99.90;;;;;;5074483;28;20439;-57
2022/11/24 12:06:13;;;;;;;4.55;2.10;;;10.70;99.90;;;;;;5074041;28;20436;-56
2022/11/24 12:08:47;;;;;;;10.23;2.20;;;10.70;99.90;;;;;;5061278;28;20071;-57
2022/11/24 12:11:33;;;;;;;6.75;2.10;;;10.70;99.90;;;;;;5071593;28;20067;-57
2022/11/24 12:14:20;;;;;;;3.15;2.03;;;10.70;99.90;;;;;;5064276;28;20047;-58
2022/11/24 12:17:02;;;;;;;7.10;2.53;;;10.80;99.90;;;;;;5066259;28;20051;-58
2022/11/24 12:22:05;;;;;;;4.50;2.97;;;10.90;99.90;;;;;;5071820;28;20151;-59
2022/11/24 12:25:13;;;;;;;3.92;1.92;;;10.90;99.90;;;;;;5094230;27;20112;-59
2022/11/24 12:27:52;;;;;;;5.30;1.90;;;11.00;99.90;;;;;;5065805;28;20454;-61
2022/11/24 12:30:20;;;;;;;3.95;1.83;;;11.00;99.90;;;;;;5072204;28;20138;-61
2022/11/24 12:33:06;;;;;;;6.65;2.00;;;11.10;99.90;;;;;;5076941;28;20071;-58
2022/11/24 12:35:51;;;;;;;10.30;2.28;;;11.10;99.90;;;;;;5063232;28;20141;-62
2022/11/24 12:38:25;;;;;;;7.47;2.30;;;11.20;99.90;;;;;;5063467;28;20466;-63
2022/11/24 12:41:03;;;;;;;5.32;1.65;;;11.20;99.90;;;;;;5067265;28;20102;-62
2022/11/24 12:43:33;;;;;;;7.57;2.20;;;11.20;99.90;;;;;;5072691;28;20151;-57
2022/11/24 12:46:13;;;;;;;6.68;1.73;;;11.20;99.90;;;;;;5071738;28;20054;-57
2022/11/24 12:49:03;;;;;;;6.70;1.88;;;11.40;99.90;;;;;;5061642;28;20239;-62
2022/11/24 12:51:41;;;;;;;5.10;1.67;;;11.30;99.90;;;;;;5059002;28;20511;-57
2022/11/24 12:54:13;;;;;;;6.35;2.10;;;11.40;99.90;;;;;;5063855;28;20229;-63
2022/11/24 12:57:05;;;;;;;3.15;1.45;;;11.40;99.90;;;;;;5062759;28;20113;-58
2022/11/24 12:59:55;;;;;;;5.80;2.33;;;11.40;99.90;;;;;;5068251;28;20055;-63
2022/11/24 13:02:32;;;;;;;9.85;2.13;;;11.40;99.90;;;;;;5058503;28;20757;-61
2022/11/24 13:05:19;;;;;;;8.68;2.88;;;11.40;99.90;;;;;;5058019;28;20059;-59
2022/11/24 13:07:47;;;;;;;6.35;2.78;;;11.40;99.90;;;;;;5073130;28;20796;-60
2022/11/24 13:10:22;;;;;;;7.72;2.45;;;11.50;99.90;;;;;;5073014;28;20139;-61
2022/11/24 13:13:04;;;;;;;8.20;3.45;;;11.50;99.90;;;;;;5054333;28;20425;-57
2022/11/24 13:15:53;;;;;;;5.53;2.15;;;11.50;99.90;;;;;;5066534;28;20501;-58
2022/11/24 13:20:58;;;;;;;5.15;2.13;;;11.40;99.90;;;;;;5053731;28;20052;-64
2022/11/24 13:23:26;;;;;;;8.38;2.25;;;11.50;99.90;;;;;;5033078;28;20106;-60
2022/11/24 13:26:26;;;;;;;4.85;1.88;;;11.40;99.90;;;;;;5071089;28;20185;-57
2022/11/24 13:29:25;;;;;;;7.18;2.22;;;11.40;99.90;;;;;;5080212;28;20070;-62